sensor_id;sensor_type;location;lat;lon;timestamp;pressure;altitude;pressure_sealevel;temperature;humidity
70745;BME280;59284;31.390;34.904;2023-01-29T00:01:13;94735.19;;;18.42;100.00
70745;BME280;59284;31.390;34.904;2023-01-29T00:03:39;94700.97;;;18.23;100.00
70745;BME280;59284;31.390;34.904;2023-01-29T00:06:07;94666.53;;;17.66;100.00
70745;BME280;59284;31.390;34.904;2023-01-29T00:08:37;94656.44;;;17.68;100.00
70745;BME280;59284;31.390;34.904;2023-01-29T00:11:04;94676.81;;;18.02;100.00
70745;BME280;59284;31.390;34.904;2023-01-29T00:13:32;94729.72;;;18.63;100.00
70745;BME280;59284;31.390;34.904;2023-01-29T00:16:02;94697.50;;;17.76;100.00
70745;BME280;59284;31.390;34.904;2023-01-29T00:18:29;94706.81;;;18.32;100.00
70745;BME280;59284;31.390;34.904;2023-01-29T00:20:56;94731.72;;;18.38;100.00
70745;BME280;59284;31.390;34.904;2023-01-29T00:23:22;94739.50;;;18.62;100.00
70745;BME280;59284;31.390;34.904;2023-01-29T00:25:48;94730.84;;;18.46;100.00
70745;BME280;59284;31.390;34.904;2023-01-29T00:28:14;94754.22;;;18.67;100.00
70745;BME280;59284;31.390;34.904;2023-01-29T00:30:40;94773.47;;;18.71;100.00
70745;BME280;59284;31.390;34.904;2023-01-29T00:33:06;94738.88;;;18.10;100.00
70745;BME280;59284;31.390;34.904;2023-01-29T00:35:32;94750.38;;;18.49;100.00
70745;BME280;59284;31.390;34.904;2023-01-29T00:37:57;94778.88;;;18.93;100.00
70745;BME280;59284;31.390;34.904;2023-01-29T00:40:24;94778.41;;;18.29;100.00
70745;BME280;59284;31.390;34.904;2023-01-29T00:42:50;94743.63;;;17.37;100.00
70745;BME280;59284;31.390;34.904;2023-01-29T00:45:35;94747.72;;;18.17;100.00
70745;BME280;59284;31.390;34.904;2023-01-29T00:48:02;94756.25;;;18.14;100.00
70745;BME280;59284;31.390;34.904;2023-01-29T00:50:29;94743.22;;;17.75;100.00
70745;BME280;59284;31.390;34.904;2023-01-29T00:52:55;94756.47;;;17.94;100.00
70745;BME280;59284;31.390;34.904;2023-01-29T00:55:21;94750.63;;;18.00;100.00
70745;BME280;59284;31.390;34.904;2023-01-29T00:57:47;94748.13;;;18.04;100.00
70745;BME280;59284;31.390;34.904;2023-01-29T01:00:16;94740.97;;;17.89;100.00
70745;BME280;59284;31.390;34.904;2023-01-29T01:02:42;94765.13;;;18.10;100.00
70745;BME280;59284;31.390;34.904;2023-01-29T01:05:26;94757.78;;;18.15;100.00
70745;BME280;59284;31.390;34.904;2023-01-29T01:07:54;94755.31;;;18.07;100.00
70745;BME280;59284;31.390;34.904;2023-01-29T01:10:30;94780.34;;;18.75;100.00
70745;BME280;59284;31.390;34.904;2023-01-29T01:13:02;94786.06;;;18.81;100.00
70745;BME280;59284;31.390;34.904;2023-01-29T01:15:33;94761.88;;;17.85;100.00
70745;BME280;59284;31.390;34.904;2023-01-29T01:17:59;94763.63;;;17.81;100.00
70745;BME280;59284;31.390;34.904;2023-01-29T01:20:27;94736.63;;;17.81;100.00
70745;BME280;59284;31.390;34.904;2023-01-29T01:22:54;94736.97;;;17.51;100.00
70745;BME280;59284;31.390;34.904;2023-01-29T01:25:21;94737.09;;;17.31;100.00
70745;BME280;59284;31.390;34.904;2023-01-29T01:27:46;94734.63;;;17.90;100.00
70745;BME280;59284;31.390;34.904;2023-01-29T01:30:14;94735.16;;;17.95;100.00
70745;BME280;59284;31.390;34.904;2023-01-29T01:32:41;94739.69;;;17.83;100.00
70745;BME280;59284;31.390;34.904;2023-01-29T01:35:09;94749.19;;;18.03;100.00
70745;BME280;59284;31.390;34.904;2023-01-29T01:37:35;94761.91;;;18.01;100.00
70745;BME280;59284;31.390;34.904;2023-01-29T01:40:07;94775.94;;;18.36;100.00
70745;BME280;59284;31.390;34.904;2023-01-29T01:42:42;94792.31;;;18.02;100.00
70745;BME280;59284;31.390;34.904;2023-01-29T01:47:46;94775.09;;;17.89;100.00
70745;BME280;59284;31.390;34.904;2023-01-29T01:50:14;94770.81;;;17.44;100.00
70745;BME280;59284;31.390;34.904;2023-01-29T01:52:44;94789.25;;;18.28;100.00
70745;BME280;59284;31.390;34.904;2023-01-29T01:55:14;94778.53;;;18.05;100.00
70745;BME280;59284;31.390;34.904;2023-01-29T01:57:42;94774.31;;;17.88;100.00
70745;BME280;59284;31.390;34.904;2023-01-29T02:00:13;94746.81;;;17.30;100.00
70745;BME280;59284;31.390;34.904;2023-01-29T02:02:42;94766.16;;;17.78;100.00
70745;BME280;59284;31.390;34.904;2023-01-29T02:05:29;94761.88;;;18.29;100.00
70745;BME280;59284;31.390;34.904;2023-01-29T02:08:19;94763.81;;;18.16;100.00
70745;BME280;59284;31.390;34.904;2023-01-29T02:11:07;94760.81;;;18.02;100.00
70745;BME280;59284;31.390;34.904;2023-01-29T02:13:33;94765.03;;;18.34;100.00
70745;BME280;59284;31.390;34.904;2023-01-29T02:15:59;94759.41;;;18.20;100.00
70745;BME280;59284;31.390;34.904;2023-01-29T02:18:24;94772.78;;;18.15;100.00
70745;BME280;59284;31.390;34.904;2023-01-29T02:21:17;94771.75;;;18.63;100.00
70745;BME280;59284;31.390;34.904;2023-01-29T02:27:40;94775.31;;;18.70;100.00
70745;BME280;59284;31.390;34.904;2023-01-29T02:35:50;94768.56;;;18.69;100.00
70745;BME280;59284;31.390;34.904;2023-01-29T02:41:19;94768.97;;;18.12;100.00
70745;BME280;59284;31.390;34.904;2023-01-29T02:43:54;94794.72;;;18.50;100.00
70745;BME280;59284;31.390;34.904;2023-01-29T02:49:51;94794.81;;;18.26;100.00
70745;BME280;59284;31.390;34.904;2023-01-29T02:52:21;94785.00;;;18.23;100.00
70745;BME280;59284;31.390;34.904;2023-01-29T02:55:07;94782.41;;;18.39;100.00
70745;BME280;59284;31.390;34.904;2023-01-29T02:57:42;94749.69;;;17.65;100.00
70745;BME280;59284;31.390;34.904;2023-01-29T03:00:15;94769.56;;;18.21;100.00
70745;BME280;59284;31.390;34.904;2023-01-29T03:05:34;94782.06;;;18.40;100.00
70745;BME280;59284;31.390;34.904;2023-01-29T03:08:07;94777.84;;;18.08;100.00
70745;BME280;59284;31.390;34.904;2023-01-29T03:11:05;94798.38;;;18.18;100.00
70745;BME280;59284;31.390;34.904;2023-01-29T03:13:42;94787.53;;;17.92;100.00
70745;BME280;59284;31.390;34.904;2023-01-29T03:16:20;94788.53;;;18.15;100.00
70745;BME280;59284;31.390;34.904;2023-01-29T03:21:55;94794.31;;;18.20;100.00
70745;BME280;59284;31.390;34.904;2023-01-29T03:24:38;94782.50;;;17.87;100.00
70745;BME280;59284;31.390;34.904;2023-01-29T03:27:26;94788.53;;;17.87;100.00
70745;BME280;59284;31.390;34.904;2023-01-29T03:30:15;94801.06;;;18.21;100.00
70745;BME280;59284;31.390;34.904;2023-01-29T03:33:03;94803.84;;;18.13;100.00
70745;BME280;59284;31.390;34.904;2023-01-29T03:35:34;94788.56;;;18.03;100.00
70745;BME280;59284;31.390;34.904;2023-01-29T03:38:03;94805.63;;;18.09;100.00
70745;BME280;59284;31.390;34.904;2023-01-29T03:40:56;94801.00;;;18.18;100.00
70745;BME280;59284;31.390;34.904;2023-01-29T03:43:32;94814.56;;;18.20;100.00
70745;BME280;59284;31.390;34.904;2023-01-29T03:46:10;94816.09;;;17.93;100.00
70745;BME280;59284;31.390;34.904;2023-01-29T03:57:41;94821.66;;;18.19;100.00
70745;BME280;59284;31.390;34.904;2023-01-29T04:00:22;94814.19;;;17.94;100.00
70745;BME280;59284;31.390;34.904;2023-01-29T04:03:01;94813.97;;;18.54;100.00
70745;BME280;59284;31.390;34.904;2023-01-29T04:05:48;94805.34;;;17.59;100.00
70745;BME280;59284;31.390;34.904;2023-01-29T04:08:22;94807.13;;;17.82;100.00
70745;BME280;59284;31.390;34.904;2023-01-29T04:10:50;94812.09;;;17.72;100.00
70745;BME280;59284;31.390;34.904;2023-01-29T04:13:20;94840.56;;;18.25;100.00
70745;BME280;59284;31.390;34.904;2023-01-29T04:15:55;94833.50;;;17.86;100.00
70745;BME280;59284;31.390;34.904;2023-01-29T04:18:23;94849.72;;;18.31;100.00
70745;BME280;59284;31.390;34.904;2023-01-29T04:20:49;94864.25;;;18.41;100.00
70745;BME280;59284;31.390;34.904;2023-01-29T04:23:23;94859.75;;;18.13;100.00
70745;BME280;59284;31.390;34.904;2023-01-29T04:28:53;94870.50;;;18.48;100.00
70745;BME280;59284;31.390;34.904;2023-01-29T04:31:29;94857.13;;;17.74;100.00
70745;BME280;59284;31.390;34.904;2023-01-29T04:37:08;94868.94;;;18.07;100.00
70745;BME280;59284;31.390;34.904;2023-01-29T04:39:46;94873.56;;;17.98;100.00
70745;BME280;59284;31.390;34.904;2023-01-29T04:42:16;94856.28;;;17.21;100.00
70745;BME280;59284;31.390;34.904;2023-01-29T04:45:17;94844.91;;;17.66;100.00
70745;BME280;59284;31.390;34.904;2023-01-29T04:55:53;94908.94;;;17.89;100.00
70745;BME280;59284;31.390;34.904;2023-01-29T05:00:53;94910.03;;;17.88;100.00
70745;BME280;59284;31.390;34.904;2023-01-29T05:03:22;94912.56;;;18.24;100.00
70745;BME280;59284;31.390;34.904;2023-01-29T05:05:56;94930.31;;;18.82;100.00
70745;BME280;59284;31.390;34.904;2023-01-29T05:08:25;94931.03;;;18.67;100.00
70745;BME280;59284;31.390;34.904;2023-01-29T05:10:53;94917.13;;;18.39;100.00
70745;BME280;59284;31.390;34.904;2023-01-29T05:13:21;94912.84;;;18.47;100.00
70745;BME280;59284;31.390;34.904;2023-01-29T05:16:13;94876.81;;;17.68;100.00
70745;BME280;59284;31.390;34.904;2023-01-29T05:18:37;94896.41;;;18.10;100.00
70745;BME280;59284;31.390;34.904;2023-01-29T05:21:05;94887.69;;;17.94;100.00
70745;BME280;59284;31.390;34.904;2023-01-29T05:23:32;94875.03;;;17.47;100.00
70745;BME280;59284;31.390;34.904;2023-01-29T05:25:58;94874.84;;;17.65;100.00
70745;BME280;59284;31.390;34.904;2023-01-29T05:28:23;94889.72;;;17.61;100.00
70745;BME280;59284;31.390;34.904;2023-01-29T05:30:51;94897.13;;;17.83;100.00
70745;BME280;59284;31.390;34.904;2023-01-29T05:33:19;94900.78;;;18.06;100.00
70745;BME280;59284;31.390;34.904;2023-01-29T05:35:46;94908.81;;;18.37;100.00
70745;BME280;59284;31.390;34.904;2023-01-29T05:38:11;94896.19;;;18.43;100.00
70745;BME280;59284;31.390;34.904;2023-01-29T05:40:37;94886.47;;;18.43;100.00
70745;BME280;59284;31.390;34.904;2023-01-29T05:43:04;94896.81;;;18.79;100.00
70745;BME280;59284;31.390;34.904;2023-01-29T05:45:30;94889.34;;;18.66;100.00
70745;BME280;59284;31.390;34.904;2023-01-29T05:47:57;94881.56;;;19.32;100.00
70745;BME280;59284;31.390;34.904;2023-01-29T05:50:24;94875.22;;;19.17;100.00
70745;BME280;59284;31.390;34.904;2023-01-29T05:52:58;94874.94;;;19.07;100.00
70745;BME280;59284;31.390;34.904;2023-01-29T05:55:24;94899.56;;;19.14;100.00
70745;BME280;59284;31.390;34.904;2023-01-29T05:57:50;94935.22;;;19.58;100.00
70745;BME280;59284;31.390;34.904;2023-01-29T06:00:16;94937.53;;;18.85;100.00
70745;BME280;59284;31.390;34.904;2023-01-29T06:02:41;94968.72;;;19.30;100.00
70745;BME280;59284;31.390;34.904;2023-01-29T06:05:08;94972.66;;;20.18;100.00
70745;BME280;59284;31.390;34.904;2023-01-29T06:07:33;94952.00;;;19.23;100.00
70745;BME280;59284;31.390;34.904;2023-01-29T06:10:00;94951.38;;;19.92;100.00
70745;BME280;59284;31.390;34.904;2023-01-29T06:12:26;94952.81;;;20.40;100.00
70745;BME280;59284;31.390;34.904;2023-01-29T06:14:51;94960.00;;;19.57;100.00
70745;BME280;59284;31.390;34.904;2023-01-29T06:17:17;94967.09;;;19.26;100.00
70745;BME280;59284;31.390;34.904;2023-01-29T06:19:43;94978.53;;;19.61;100.00
70745;BME280;59284;31.390;34.904;2023-01-29T06:22:08;94997.44;;;19.98;100.00
70745;BME280;59284;31.390;34.904;2023-01-29T06:24:34;94999.56;;;19.61;100.00
70745;BME280;59284;31.390;34.904;2023-01-29T06:27:00;95004.97;;;20.31;100.00
70745;BME280;59284;31.390;34.904;2023-01-29T06:29:25;95017.53;;;20.75;100.00
70745;BME280;59284;31.390;34.904;2023-01-29T06:31:51;95014.28;;;21.01;100.00
70745;BME280;59284;31.390;34.904;2023-01-29T06:34:17;95012.00;;;20.61;100.00
70745;BME280;59284;31.390;34.904;2023-01-29T06:36:43;95000.13;;;21.09;100.00
70745;BME280;59284;31.390;34.904;2023-01-29T06:39:08;94991.72;;;21.04;100.00
70745;BME280;59284;31.390;34.904;2023-01-29T06:41:34;94991.53;;;20.74;100.00
70745;BME280;59284;31.390;34.904;2023-01-29T06:44:00;94997.28;;;20.98;100.00
70745;BME280;59284;31.390;34.904;2023-01-29T06:46:26;95000.69;;;20.80;100.00
70745;BME280;59284;31.390;34.904;2023-01-29T06:48:51;95003.81;;;20.85;100.00
70745;BME280;59284;31.390;34.904;2023-01-29T06:51:17;95004.56;;;20.86;100.00
70745;BME280;59284;31.390;34.904;2023-01-29T06:53:43;95002.50;;;22.31;100.00
70745;BME280;59284;31.390;34.904;2023-01-29T06:56:08;95005.78;;;23.87;100.00
70745;BME280;59284;31.390;34.904;2023-01-29T06:58:37;94996.06;;;23.21;100.00
70745;BME280;59284;31.390;34.904;2023-01-29T07:01:08;94994.94;;;22.85;100.00
70745;BME280;59284;31.390;34.904;2023-01-29T07:03:34;94992.84;;;22.42;100.00
70745;BME280;59284;31.390;34.904;2023-01-29T07:06:00;94997.06;;;21.94;100.00
70745;BME280;59284;31.390;34.904;2023-01-29T07:08:26;94964.59;;;22.50;100.00
70745;BME280;59284;31.390;34.904;2023-01-29T07:10:57;94938.09;;;22.13;100.00
70745;BME280;59284;31.390;34.904;2023-01-29T07:13:24;94902.81;;;22.28;100.00
70745;BME280;59284;31.390;34.904;2023-01-29T07:15:49;94892.22;;;21.23;100.00
70745;BME280;59284;31.390;34.904;2023-01-29T07:18:15;94884.75;;;21.78;100.00
70745;BME280;59284;31.390;34.904;2023-01-29T07:20:42;94923.25;;;22.61;100.00
70745;BME280;59284;31.390;34.904;2023-01-29T07:23:12;94963.69;;;20.38;100.00
70745;BME280;59284;31.390;34.904;2023-01-29T07:25:38;94955.31;;;21.54;100.00
70745;BME280;59284;31.390;34.904;2023-01-29T07:28:04;94952.00;;;23.02;100.00
70745;BME280;59284;31.390;34.904;2023-01-29T07:30:30;94974.19;;;21.11;100.00
70745;BME280;59284;31.390;34.904;2023-01-29T07:33:03;95000.69;;;20.42;100.00
70745;BME280;59284;31.390;34.904;2023-01-29T07:35:31;95004.00;;;22.02;100.00
70745;BME280;59284;31.390;34.904;2023-01-29T07:37:57;94987.56;;;21.67;100.00
70745;BME280;59284;31.390;34.904;2023-01-29T07:40:22;95005.41;;;21.96;100.00
70745;BME280;59284;31.390;34.904;2023-01-29T07:42:48;95011.91;;;21.80;100.00
70745;BME280;59284;31.390;34.904;2023-01-29T07:45:14;94996.19;;;22.65;100.00
70745;BME280;59284;31.390;34.904;2023-01-29T07:47:39;94981.59;;;23.48;100.00
70745;BME280;59284;31.390;34.904;2023-01-29T07:50:05;95001.19;;;23.40;100.00
70745;BME280;59284;31.390;34.904;2023-01-29T07:52:32;94991.66;;;24.99;100.00
70745;BME280;59284;31.390;34.904;2023-01-29T07:54:58;95001.97;;;22.74;100.00
70745;BME280;59284;31.390;34.904;2023-01-29T07:57:24;94998.03;;;22.61;100.00
70745;BME280;59284;31.390;34.904;2023-01-29T07:59:50;94995.94;;;23.91;100.00
70745;BME280;59284;31.390;34.904;2023-01-29T08:02:16;94988.97;;;24.92;100.00
70745;BME280;59284;31.390;34.904;2023-01-29T08:04:41;94972.06;;;23.88;100.00
70745;BME280;59284;31.390;34.904;2023-01-29T08:07:07;94955.34;;;24.34;100.00
70745;BME280;59284;31.390;34.904;2023-01-29T08:09:34;94966.38;;;25.54;100.00
70745;BME280;59284;31.390;34.904;2023-01-29T08:12:00;94983.06;;;26.36;100.00
70745;BME280;59284;31.390;34.904;2023-01-29T08:14:26;94999.81;;;24.04;100.00
70745;BME280;59284;31.390;34.904;2023-01-29T08:16:52;95000.78;;;23.01;100.00
70745;BME280;59284;31.390;34.904;2023-01-29T08:19:17;94995.38;;;24.15;100.00
70745;BME280;59284;31.390;34.904;2023-01-29T08:21:43;94986.69;;;26.91;100.00
70745;BME280;59284;31.390;34.904;2023-01-29T08:24:09;94944.75;;;28.12;100.00
70745;BME280;59284;31.390;34.904;2023-01-29T08:26:34;94908.63;;;31.52;100.00
70745;BME280;59284;31.390;34.904;2023-01-29T08:29:00;94898.16;;;29.88;100.00
70745;BME280;59284;31.390;34.904;2023-01-29T08:31:26;94875.75;;;32.66;100.00
70745;BME280;59284;31.390;34.904;2023-01-29T08:33:55;94874.53;;;29.86;100.00
70745;BME280;59284;31.390;34.904;2023-01-29T08:36:20;94891.81;;;29.05;100.00
70745;BME280;59284;31.390;34.904;2023-01-29T08:38:46;94923.44;;;27.64;100.00
70745;BME280;59284;31.390;34.904;2023-01-29T08:41:11;94916.16;;;31.57;100.00
70745;BME280;59284;31.390;34.904;2023-01-29T08:43:37;94924.31;;;32.43;100.00
70745;BME280;59284;31.390;34.904;2023-01-29T08:46:04;94915.72;;;34.89;100.00
70745;BME280;59284;31.390;34.904;2023-01-29T08:48:30;94909.22;;;34.13;100.00
70745;BME280;59284;31.390;34.904;2023-01-29T08:50:57;94888.00;;;35.10;100.00
70745;BME280;59284;31.390;34.904;2023-01-29T08:53:24;94897.66;;;35.30;100.00
70745;BME280;59284;31.390;34.904;2023-01-29T08:55:50;94907.78;;;30.47;100.00
70745;BME280;59284;31.390;34.904;2023-01-29T08:58:17;94940.09;;;26.34;100.00
70745;BME280;59284;31.390;34.904;2023-01-29T09:00:42;94941.28;;;25.34;100.00
70745;BME280;59284;31.390;34.904;2023-01-29T09:03:08;94917.00;;;31.70;100.00
70745;BME280;59284;31.390;34.904;2023-01-29T09:05:36;94922.28;;;26.17;100.00
70745;BME280;59284;31.390;34.904;2023-01-29T09:08:02;94897.22;;;26.18;100.00
70745;BME280;59284;31.390;34.904;2023-01-29T09:10:27;94873.88;;;29.78;100.00
70745;BME280;59284;31.390;34.904;2023-01-29T09:12:53;94861.81;;;34.89;90.81
70745;BME280;59284;31.390;34.904;2023-01-29T09:15:19;94878.72;;;31.82;72.24
70745;BME280;59284;31.390;34.904;2023-01-29T09:17:44;94882.47;;;28.90;96.33
70745;BME280;59284;31.390;34.904;2023-01-29T09:20:10;94879.78;;;24.86;100.00
70745;BME280;59284;31.390;34.904;2023-01-29T09:22:36;94866.06;;;24.63;100.00
70745;BME280;59284;31.390;34.904;2023-01-29T09:25:02;94877.41;;;23.30;100.00
70745;BME280;59284;31.390;34.904;2023-01-29T09:27:28;94885.69;;;24.37;100.00
70745;BME280;59284;31.390;34.904;2023-01-29T09:29:53;94885.56;;;24.13;100.00
70745;BME280;59284;31.390;34.904;2023-01-29T09:32:19;94877.38;;;24.46;100.00
70745;BME280;59284;31.390;34.904;2023-01-29T09:34:45;94861.56;;;25.87;100.00
70745;BME280;59284;31.390;34.904;2023-01-29T09:37:10;94858.00;;;27.08;100.00
70745;BME280;59284;31.390;34.904;2023-01-29T09:39:36;94845.69;;;25.41;100.00
70745;BME280;59284;31.390;34.904;2023-01-29T09:42:27;94821.75;;;25.66;100.00
70745;BME280;59284;31.390;34.904;2023-01-29T09:45:02;94814.28;;;32.55;89.32
70745;BME280;59284;31.390;34.904;2023-01-29T09:47:32;94814.38;;;32.52;88.54
70745;BME280;59284;31.390;34.904;2023-01-29T09:50:12;94809.44;;;31.03;82.10
70745;BME280;59284;31.390;34.904;2023-01-29T09:55:34;94760.56;;;33.74;75.87
70745;BME280;59284;31.390;34.904;2023-01-29T10:20:23;94724.84;;;34.26;74.26
70745;BME280;59284;31.390;34.904;2023-01-29T10:23:06;94707.03;;;35.26;72.00
70745;BME280;59284;31.390;34.904;2023-01-29T10:25:39;94713.25;;;32.45;68.17
70745;BME280;59284;31.390;34.904;2023-01-29T10:30:46;94733.34;;;28.88;76.29
70745;BME280;59284;31.390;34.904;2023-01-29T10:33:17;94732.34;;;34.31;65.67
70745;BME280;59284;31.390;34.904;2023-01-29T10:35:52;94747.31;;;32.36;72.34
70745;BME280;59284;31.390;34.904;2023-01-29T10:41:13;94701.25;;;34.88;64.94
70745;BME280;59284;31.390;34.904;2023-01-29T10:44:03;94703.00;;;34.55;63.76
70745;BME280;59284;31.390;34.904;2023-01-29T11:00:40;94710.41;;;33.46;48.06
70745;BME280;59284;31.390;34.904;2023-01-29T11:03:22;94703.78;;;34.34;45.80
70745;BME280;59284;31.390;34.904;2023-01-29T11:08:32;94704.91;;;30.87;47.49
70745;BME280;59284;31.390;34.904;2023-01-29T11:13:37;94693.88;;;34.62;48.26
70745;BME280;59284;31.390;34.904;2023-01-29T11:16:04;94673.63;;;35.06;40.42
70745;BME280;59284;31.390;34.904;2023-01-29T11:18:54;94687.81;;;33.22;42.30
70745;BME280;59284;31.390;34.904;2023-01-29T11:21:20;94691.59;;;28.98;42.51
70745;BME280;59284;31.390;34.904;2023-01-29T11:23:47;94674.78;;;27.67;42.19
70745;BME280;59284;31.390;34.904;2023-01-29T11:26:18;94656.56;;;28.46;43.50
70745;BME280;59284;31.390;34.904;2023-01-29T11:28:50;94666.91;;;26.82;49.40
70745;BME280;59284;31.390;34.904;2023-01-29T11:31:26;94674.47;;;26.39;59.82
70745;BME280;59284;31.390;34.904;2023-01-29T11:34:05;94657.78;;;25.70;61.15
70745;BME280;59284;31.390;34.904;2023-01-29T11:36:38;94662.56;;;24.85;65.84
70745;BME280;59284;31.390;34.904;2023-01-29T11:39:19;94641.66;;;28.48;66.86
70745;BME280;59284;31.390;34.904;2023-01-29T11:41:58;94647.97;;;31.44;56.58
70745;BME280;59284;31.390;34.904;2023-01-29T11:47:09;94675.78;;;32.04;61.58
70745;BME280;59284;31.390;34.904;2023-01-29T11:49:35;94649.03;;;32.98;52.53
70745;BME280;59284;31.390;34.904;2023-01-29T11:52:05;94640.09;;;33.13;52.85
70745;BME280;59284;31.390;34.904;2023-01-29T11:54:37;94668.47;;;26.25;60.76
70745;BME280;59284;31.390;34.904;2023-01-29T11:57:05;94653.59;;;26.82;64.72
70745;BME280;59284;31.390;34.904;2023-01-29T11:59:46;94643.88;;;26.65;67.96
70745;BME280;59284;31.390;34.904;2023-01-29T12:02:31;94620.00;;;34.01;58.89
70745;BME280;59284;31.390;34.904;2023-01-29T12:05:19;94614.28;;;32.82;51.89
70745;BME280;59284;31.390;34.904;2023-01-29T12:07:51;94601.81;;;38.40;47.05
70745;BME280;59284;31.390;34.904;2023-01-29T12:15:29;94627.59;;;34.82;51.05
70745;BME280;59284;31.390;34.904;2023-01-29T12:18:10;94620.56;;;34.27;52.14
70745;BME280;59284;31.390;34.904;2023-01-29T12:28:38;94632.03;;;28.31;64.71
70745;BME280;59284;31.390;34.904;2023-01-29T12:31:28;94601.25;;;29.71;58.41
70745;BME280;59284;31.390;34.904;2023-01-29T12:36:46;94573.81;;;35.93;53.48
70745;BME280;59284;31.390;34.904;2023-01-29T12:39:18;94583.06;;;37.05;53.58
70745;BME280;59284;31.390;34.904;2023-01-29T12:44:30;94641.41;;;29.09;72.10
70745;BME280;59284;31.390;34.904;2023-01-29T12:47:01;94622.06;;;32.42;70.61
70745;BME280;59284;31.390;34.904;2023-01-29T12:49:34;94634.88;;;27.30;86.86
70745;BME280;59284;31.390;34.904;2023-01-29T12:52:14;94666.34;;;24.34;100.00
70745;BME280;59284;31.390;34.904;2023-01-29T12:55:05;94671.28;;;24.61;100.00
70745;BME280;59284;31.390;34.904;2023-01-29T12:57:37;94653.78;;;27.73;95.70
70745;BME280;59284;31.390;34.904;2023-01-29T13:00:12;94645.22;;;28.65;81.71
70745;BME280;59284;31.390;34.904;2023-01-29T13:05:32;94661.31;;;30.03;77.65
70745;BME280;59284;31.390;34.904;2023-01-29T13:08:06;94676.63;;;27.40;87.28
70745;BME280;59284;31.390;34.904;2023-01-29T13:10:39;94678.88;;;24.83;100.00
70745;BME280;59284;31.390;34.904;2023-01-29T13:13:33;94685.00;;;23.34;100.00
70745;BME280;59284;31.390;34.904;2023-01-29T13:16:03;94693.56;;;23.14;100.00
70745;BME280;59284;31.390;34.904;2023-01-29T13:21:43;94695.03;;;23.90;100.00
70745;BME280;59284;31.390;34.904;2023-01-29T13:24:19;94688.91;;;22.96;100.00
70745;BME280;59284;31.390;34.904;2023-01-29T13:26:47;94672.13;;;22.75;100.00
70745;BME280;59284;31.390;34.904;2023-01-29T13:29:27;94628.09;;;24.18;100.00
70745;BME280;59284;31.390;34.904;2023-01-29T13:31:54;94594.31;;;24.99;100.00
70745;BME280;59284;31.390;34.904;2023-01-29T13:34:28;94583.78;;;26.27;100.00
70745;BME280;59284;31.390;34.904;2023-01-29T13:37:08;94576.41;;;26.45;100.00
70745;BME280;59284;31.390;34.904;2023-01-29T13:39:46;94587.06;;;27.50;100.00
70745;BME280;59284;31.390;34.904;2023-01-29T13:44:55;94677.97;;;23.84;100.00
70745;BME280;59284;31.390;34.904;2023-01-29T13:47:30;94684.66;;;23.46;100.00
70745;BME280;59284;31.390;34.904;2023-01-29T13:52:55;94693.84;;;23.73;100.00
70745;BME280;59284;31.390;34.904;2023-01-29T13:58:03;94722.75;;;21.63;100.00
70745;BME280;59284;31.390;34.904;2023-01-29T14:10:31;94723.66;;;21.44;100.00
70745;BME280;59284;31.390;34.904;2023-01-29T14:15:34;94713.47;;;21.76;100.00
70745;BME280;59284;31.390;34.904;2023-01-29T14:18:20;94702.59;;;20.95;100.00
70745;BME280;59284;31.390;34.904;2023-01-29T14:26:20;94681.06;;;22.16;100.00
70745;BME280;59284;31.390;34.904;2023-01-29T14:29:02;94690.00;;;22.01;100.00
70745;BME280;59284;31.390;34.904;2023-01-29T14:31:41;94682.56;;;20.65;100.00
70745;BME280;59284;31.390;34.904;2023-01-29T14:34:21;94686.22;;;20.57;100.00
70745;BME280;59284;31.390;34.904;2023-01-29T14:36:50;94684.50;;;20.68;100.00
70745;BME280;59284;31.390;34.904;2023-01-29T14:39:36;94680.22;;;22.05;100.00
70745;BME280;59284;31.390;34.904;2023-01-29T14:42:21;94684.81;;;21.45;100.00
70745;BME280;59284;31.390;34.904;2023-01-29T14:49:58;94704.69;;;20.83;100.00
70745;BME280;59284;31.390;34.904;2023-01-29T14:52:39;94671.06;;;21.29;100.00
70745;BME280;59284;31.390;34.904;2023-01-29T14:55:12;94664.44;;;20.60;100.00
70745;BME280;59284;31.390;34.904;2023-01-29T14:57:40;94674.75;;;20.46;100.00
70745;BME280;59284;31.390;34.904;2023-01-29T15:00:17;94678.91;;;19.82;100.00
70745;BME280;59284;31.390;34.904;2023-01-29T15:02:47;94704.22;;;19.68;100.00
70745;BME280;59284;31.390;34.904;2023-01-29T15:05:41;94723.25;;;19.42;100.00
70745;BME280;59284;31.390;34.904;2023-01-29T15:08:22;94746.00;;;19.19;100.00
70745;BME280;59284;31.390;34.904;2023-01-29T15:10:59;94744.09;;;19.35;100.00
70745;BME280;59284;31.390;34.904;2023-01-29T15:13:55;94747.53;;;19.35;100.00
70745;BME280;59284;31.390;34.904;2023-01-29T15:16:30;94754.31;;;18.55;100.00
70745;BME280;59284;31.390;34.904;2023-01-29T15:19:10;94745.16;;;18.64;100.00
70745;BME280;59284;31.390;34.904;2023-01-29T15:21:38;94731.16;;;18.91;100.00
70745;BME280;59284;31.390;34.904;2023-01-29T15:24:05;94700.94;;;19.36;100.00
70745;BME280;59284;31.390;34.904;2023-01-29T15:26:31;94659.75;;;19.09;100.00
70745;BME280;59284;31.390;34.904;2023-01-29T15:29:00;94670.19;;;18.86;100.00
70745;BME280;59284;31.390;34.904;2023-01-29T15:31:27;94680.22;;;18.80;100.00
70745;BME280;59284;31.390;34.904;2023-01-29T15:33:55;94707.00;;;18.70;100.00
70745;BME280;59284;31.390;34.904;2023-01-29T15:36:25;94729.44;;;18.21;100.00
70745;BME280;59284;31.390;34.904;2023-01-29T15:39:14;94722.31;;;18.21;100.00